• Join FlightAware (Why Join?)
  • Login
  • US Flag 
09:40AM EDT


 

Airport Tracker/Info


-or-


 

Live Flight TrackerFlight Track Log ✈ B-18725 ✈ 28-Apr-2013 ✈ PANC - KORD

Flight Track Log - Related Links

Times and Time Zones

All times are in EDT time to prevent confusion due to time zone crossing. See the B-18725 flight status page for this flight to view local times or setup timezone preferences in your user account.

Time Position Orientation Groundspeed Altitude Reporting Facility
EDT Latitude Longitude Course Direction KTS MPH feet Rate Location/Type
12:11PM 61.1930 -150.0100 346° North 155 178 400  Level FlightAware
12:12PM 61.2120 -150.0270 337° Northwest 165 190 1,300 1,920 Climbing FlightAware
12:12PM 61.2170 -150.0380 313° West 166 191 1,700 1,800 Climbing FlightAware
12:12PM 61.2350 -150.0720 318° Northwest 170 196 2,500 1,680 Climbing FlightAware
12:13PM 61.2520 -150.1060 316° Northwest 173 199 3,400 1,260 Climbing FlightAware
12:13PM 61.2680 -150.1370 317° Northwest 199 229 3,700 720 Climbing FlightAware
12:14PM 61.2800 -150.1480 336° Northwest 208 239 3,900 900 Climbing FlightAware
12:14PM 61.3070 -150.1200 26° Northeast 245 282 4,400 1,500 Climbing FlightAware
12:15PM 61.3170 -150.0620 70° East 274 315 5,300 2,580 Climbing FlightAware
12:15PM 61.3070 -149.9810 104° East 288 331 6,800 2,880 Climbing FlightAware
12:15PM 61.3010 -149.9400 107° East 289 333 7,500 2,700 Climbing FlightAware
12:16PM 61.2910 -149.8750 108° East 290 334 8,600 2,460 Climbing FlightAware
12:16PM 61.2790 -149.7950 107° East 296 341 9,800 1,860 Climbing FlightAware
12:17PM 61.2630 -149.6900 108° East 321 369 10,800 1,260 Climbing FlightAware
12:18PM 61.2440 -149.5440 105° East 366 421 11,600 1,200 Climbing FlightAware
12:18PM 61.2290 -149.4230 104° East 387 445 12,600 2,160 Climbing FlightAware
12:19PM 61.2060 -149.2570 106° East 398 458 14,500 3,000 Climbing FlightAware
12:20PM 61.1890 -149.1270 105° East 408 470 16,100 2,760 Climbing FlightAware
12:20PM 61.1680 -148.9710 106° East 421 484 18,000 1,920 Climbing FlightAware
12:21PM 61.1420 -148.7710 105° East 425 489 19,200 660 Climbing FlightAware
12:22PM 61.1200 -148.6040 105° East 425 489 19,200 2,940 Level FlightAware
12:23PM 61.0910 -148.4130 107° East 456 525 23,400 4,140 Climbing FlightAware
12:23PM 61.0610 -148.1950 106° East 468 539 25,100 1,860 Climbing FlightAware
12:24PM 61.0340 -148.0110 107° East 476 548 26,400 1,740 Climbing FlightAware
12:25PM 61.0140 -147.8720 106° East 481 554 27,300 1,080 Climbing FlightAware
12:25PM 60.9890 -147.6860 105° East 489 563 27,800 1,620 Climbing FlightAware
12:26PM 60.9420 -147.3800 107° East 501 577 30,300 1,500 Climbing FlightAware
12:27PM 60.9210 -147.2400 107° East 501 577 30,300 1,380 Level FlightAware
12:28PM 60.8870 -147.0170 107° East 507 583 32,200 1,260 Climbing FlightAware
12:29PM 60.8620 -146.8360 106° East 507 583 32,200 1,140 Level FlightAware
12:29PM 60.8260 -146.6190 109° East 33,800 1,740 Climbing FlightAware
12:30PM 60.7833 -146.3500 109° East 510 587 35,000 600 Climbing Anchorage Center
12:31PM 60.7333 -146.0667 110° East 510 587 35,000  Level Anchorage Center
12:32PM 60.6833 -145.7833 110° East 510 587 35,000  Level Anchorage Center
12:33PM 60.6333 -145.5000 110° East 510 587 35,000  Level Anchorage Center
12:34PM 60.6000 -145.2833 107° East 510 587 35,000  Level Anchorage Center
12:35PM 60.5667 -145.0167 104° East 490 564 35,000  Level Anchorage Center
12:36PM 60.5167 -144.7500 111° Southeast 510 587 35,000  Level Anchorage Center
12:37PM 60.4667 -144.4667 110° East 510 587 35,000  Level Anchorage Center
12:38PM 60.4167 -144.2000 111° Southeast 500 575 35,000  Level Anchorage Center
12:39PM 60.3667 -143.9333 111° Southeast 510 587 35,000  Level Anchorage Center
12:40PM 60.3167 -143.6667 111° Southeast 500 575 35,000  Level Anchorage Center
12:41PM 60.2667 -143.4167 112° Southeast 500 575 35,000  Level Anchorage Center
12:42PM 60.2167 -143.1333 109° East 510 587 35,000  Level Anchorage Center
12:43PM 60.1667 -142.8667 111° Southeast 520 598 35,000  Level Anchorage Center
12:44PM 60.1167 -142.6000 111° Southeast 510 587 35,000  Level Anchorage Center
12:45PM 60.0667 -142.3333 110° East 510 587 35,000  Level Anchorage Center
12:46PM 60.0167 -142.0667 110° East 510 587 35,000  Level Anchorage Center
12:47PM 59.9667 -141.8000 110° East 510 587 35,000  Level Anchorage Center
12:48PM 59.9000 -141.5333 116° Southeast 510 587 35,000  Level Anchorage Center
12:49PM 59.8500 -141.2667 110° East 510 587 35,000  Level Anchorage Center
12:50PM 59.8000 -141.0167 112° Southeast 510 587 35,000  Level Anchorage Center
12:51PM 59.7500 -140.7500 110° East 510 587 35,000  Level Anchorage Center
12:52PM 59.6833 -140.4833 116° Southeast 510 587 35,000  Level Anchorage Center
12:53PM 59.6333 -140.2333 111° Southeast 510 587 35,000  Level Anchorage Center
12:54PM 59.5833 -139.9667 110° East 520 598 35,000  Level Anchorage Center
12:55PM 59.5167 -139.7167 118° Southeast 490 564 35,000  Level Anchorage Center
12:57PM 59.4500 -139.1500 103° East 520 598 35,000  Level Anchorage Center
12:58PM 59.4167 -138.8833 104° East 510 587 35,000  Level Anchorage Center
12:59PM 59.3833 -138.6000 103° East 510 587 35,000  Level Anchorage Center
01:00PM 59.3500 -138.3333 104° East 500 575 35,000  Level Anchorage Center
01:01PM 59.3167 -138.0667 104° East 510 587 35,000  Level Anchorage Center
01:02PM 59.2833 -137.7833 103° East 510 587 35,000  Level Anchorage Center
01:03PM 59.2500 -137.5167 104° East 510 587 35,000  Level Anchorage Center
01:04PM 59.2167 -137.2500 104° East 510 587 35,000  Level Anchorage Center
01:05PM 59.1833 -136.9833 104° East 510 587 35,000  Level Anchorage Center
01:06PM 59.1500 -136.7167 104° East 510 587 35,000  Level Anchorage Center
01:07PM 59.1000 -136.4333 109° East 520 598 35,000  Level Anchorage Center
01:08PM 59.0667 -136.1667 104° East 510 587 35,000  Level Anchorage Center
01:09PM 59.0333 -135.9000 104° East 520 598 35,000  Level Anchorage Center
01:10PM 59.0000 -135.6333 104° East 520 598 35,000  Level Anchorage Center
01:11PM 58.9500 -135.3667 110° East 520 598 35,000  Level Anchorage Center
01:12PM 58.9167 -135.1000 104° East 520 598 35,000  Level Anchorage Center
01:13PM 58.8667 -134.8333 110° East 510 587 35,000  Level Anchorage Center
01:14PM 58.8333 -134.5667 103° East 520 598 35,000  Level Anchorage Center
01:15PM 58.7833 -134.3000 110° East 520 598 35,000  Level Anchorage Center
01:16PM 58.7500 -134.0333 103° East 520 598 35,000  Level Anchorage Center
01:17PM 58.7000 -133.7667 110° East 520 598 35,000  Level Anchorage Center
01:18PM 58.6500 -133.5000 110° East 530 610 35,000  Level Anchorage Center
01:19PM 58.6167 -133.2333 103° East 520 598 35,000  Level Anchorage Center
01:22PM 58.5620 -132.9116 108° East  Level FlightAware Approximate
01:29PM 58.2488 -131.1756 110° East  Level FlightAware Approximate
01:30PM 58.2015 -130.9306 110° East  Level FlightAware Approximate
01:31PM 58.1538 -130.6862 110° East  Level FlightAware Approximate
01:32PM 58.1201 -130.4347 104° East  Level FlightAware Approximate
01:33PM 58.0858 -130.1838 104° East  Level FlightAware Approximate
01:34PM 58.0510 -129.9333 105° East  Level FlightAware Approximate
01:35PM 58.0158 -129.6833 105° East  Level FlightAware Approximate
01:36PM 57.9801 -129.4338 105° East  Level FlightAware Approximate
01:37PM 57.9439 -129.1848 105° East  Level FlightAware Approximate
01:38PM 57.9072 -128.9364 105° East  Level FlightAware Approximate
01:39PM 57.8700 -128.6884 106° East  Level FlightAware Approximate
01:40PM 57.8323 -128.4409 106° East  Level FlightAware Approximate
01:41PM 57.7942 -128.1940 106° East  Level FlightAware Approximate
01:42PM 57.7555 -127.9476 106° East  Level FlightAware Approximate
01:43PM 57.7164 -127.7017 106° East  Level FlightAware Approximate
01:44PM 57.6769 -127.4564 107° East  Level FlightAware Approximate
01:45PM 57.6368 -127.2115 107° East  Level FlightAware Approximate
01:46PM 57.5963 -126.9673 107° East  Level FlightAware Approximate
01:47PM 57.5553 -126.7236 107° East  Level FlightAware Approximate
01:48PM 57.5138 -126.4804 108° East  Level FlightAware Approximate
01:49PM 57.4681 -126.2373 110° East  Level FlightAware Approximate
01:50PM 57.4208 -125.9985 110° East  Level FlightAware Approximate
01:51PM 57.3730 -125.7602 110° East  Level FlightAware Approximate
01:51PM 56.9167 -125.2167 111° Southeast 550 633 35,000  Level Edmonton Center
01:52PM 57.3248 -125.5226 111° Southeast  Level FlightAware Approximate
01:52PM 56.8500 -124.9833 118° Southeast 530 610 35,000  Level Edmonton Center
01:53PM 57.2761 -125.2857 111° Southeast  Level FlightAware Approximate
01:53PM 56.8000 -124.7333 110° East 530 610 35,000  Level Edmonton Center
01:54PM 57.2270 -125.0493 111° Southeast  Level FlightAware Approximate
01:54PM 56.7333 -124.4667 114° Southeast 530 610 35,000  Level Edmonton Center
01:55PM 57.1772 -124.8138 111° Southeast  Level FlightAware Approximate
01:55PM 56.6667 -124.2500 119° Southeast 530 610 35,000  Level Edmonton Center
01:56PM 57.1270 -124.5789 111° Southeast  Level FlightAware Approximate
01:56PM 56.6000 -123.9833 114° Southeast 530 610 35,000  Level Edmonton Center
01:57PM 56.5333 -123.7667 119° Southeast 520 598 35,000  Level Edmonton Center
01:58PM 56.4833 -123.5500 113° Southeast 520 598 35,000  Level Edmonton Center
01:59PM 56.4000 -123.2833 119° Southeast 520 598 35,000  Level Edmonton Center
02:00PM 56.3500 -123.0667 113° Southeast 520 598 35,000  Level Edmonton Center
02:01PM 56.2833 -122.8167 116° Southeast 520 598 35,000  Level Edmonton Center
02:02PM 56.2000 -122.5833 123° Southeast 530 610 35,000  Level Edmonton Center
02:03PM 56.1333 -122.3333 115° Southeast 530 610 35,000  Level Edmonton Center
02:04PM 56.0667 -122.0833 115° Southeast 530 610 35,000  Level Edmonton Center
02:05PM 56.0000 -121.8333 115° Southeast 540 621 35,000  Level Edmonton Center
02:06PM 55.9333 -121.6167 119° Southeast 540 621 35,000  Level Edmonton Center
02:07PM 55.8667 -121.4000 119° Southeast 540 621 35,000  Level Edmonton Center
02:08PM 55.7833 -121.1500 121° Southeast 540 621 35,000  Level Edmonton Center
02:09PM 55.7333 -120.9167 111° Southeast 540 621 35,000  Level Edmonton Center
02:10PM 55.6500 -120.6667 120° Southeast 530 610 35,000  Level Edmonton Center
02:11PM 55.5833 -120.4500 118° Southeast 530 610 35,000  Level Edmonton Center
02:12PM 55.5167 -120.2000 115° Southeast 530 610 35,000  Level Edmonton Center
02:13PM 55.4833 -119.9500 103° East 540 621 35,000  Level Edmonton Center
02:14PM 55.4167 -119.6833 114° Southeast 540 621 35,000  Level Edmonton Center
02:15PM 55.3667 -119.4167 108° East 540 621 35,000  Level Edmonton Center
02:16PM 55.3333 -119.2000 105° East 540 621 35,000  Level Edmonton Center
02:17PM 55.2833 -118.9333 108° East 540 621 35,000  Level Edmonton Center
02:18PM 55.2333 -118.6667 108° East 540 621 35,000  Level Edmonton Center
02:19PM 55.1833 -118.4333 110° East 540 621 35,000  Level Edmonton Center
02:20PM 55.1333 -118.1833 109° East 540 621 35,000  Level Edmonton Center
02:21PM 55.0833 -117.9333 109° East 540 621 35,000  Level Edmonton Center
02:22PM 55.0167 -117.6667 113° Southeast 540 621 35,000  Level Edmonton Center
02:27PM 54.7710 -116.2710 113° Southeast 555 639 35,000  Level FlightAware
02:28PM 54.7300 -116.0840 111° Southeast 556 640 35,000  Level FlightAware
02:29PM 54.6950 -115.9230 111° Southeast 557 641 35,000  Level FlightAware
02:30PM 54.6570 -115.7510 111° Southeast 553 636 35,000  Level FlightAware
02:30PM 54.6240 -115.6050 111° Southeast 553 636 35,000  Level FlightAware
02:31PM 54.5830 -115.4230 111° Southeast 555 639 35,000  Level FlightAware
02:32PM 54.5390 -115.2230 111° Southeast 555 639 35,000  Level FlightAware
02:33PM 54.4410 -114.7990 112° Southeast 561 646 35,000  Level FlightAware
02:35PM 54.3710 -114.5040 112° Southeast 559 643 35,000  Level FlightAware
02:36PM 54.3000 -114.2050 112° Southeast 559 643 35,000  Level FlightAware
02:37PM 54.2310 -113.9180 112° Southeast 559 643 35,000  Level FlightAware
02:38PM 54.1620 -113.6340 112° Southeast 555 639 35,000  Level FlightAware
02:39PM 54.0820 -113.3100 113° Southeast 553 636 35,000  Level FlightAware
02:41PM 54.0170 -113.0500 113° Southeast 553 636 35,000  Level FlightAware
02:42PM 53.9360 -112.7320 113° Southeast 551 634 35,000  Level FlightAware
02:43PM 53.8650 -112.4560 113° Southeast 550 633 35,000  Level FlightAware
02:44PM 53.7940 -112.1810 114° Southeast 551 634 35,000  Level FlightAware
02:45PM 53.7200 -111.9030 114° Southeast 551 634 35,000  Level FlightAware
02:47PM 53.6310 -111.5680 114° Southeast 554 638 35,000  Level FlightAware
02:47PM 53.5880 -111.4100 115° Southeast 554 638 35,000  Level FlightAware
02:48PM 53.5430 -111.2430 114° Southeast 554 638 35,000  Level FlightAware
02:49PM 53.5040 -111.0980 114° Southeast 554 638 35,000  Level FlightAware
02:50PM 53.4500 -110.9050 115° Southeast 550 633 35,000  Level FlightAware
02:50PM 53.4140 -110.7720 114° Southeast 550 633 35,000  Level FlightAware
02:51PM 53.3790 -110.6390 114° Southeast 550 633 35,000  Level FlightAware
02:52PM 53.3350 -110.4740 114° Southeast 550 633 35,000  Level FlightAware
02:52PM 53.2990 -110.3410 114° Southeast 550 633 35,000  Level FlightAware
02:53PM 53.2640 -110.2090 114° Southeast 550 633 35,000  Level FlightAware
02:54PM 53.2290 -110.0770 114° Southeast 550 633 35,000  Level FlightAware
02:54PM 53.1940 -109.9450 114° Southeast 550 633 35,000  Level FlightAware
02:55PM 53.1500 -109.7800 114° Southeast 550 633 35,000  Level FlightAware
02:56PM 53.1150 -109.6480 114° Southeast 550 633 35,000  Level FlightAware
02:57PM 53.0790 -109.5170 115° Southeast 550 633 35,000  Level FlightAware
02:57PM 53.0440 -109.3850 114° Southeast 550 633 35,000  Level FlightAware
02:58PM 53.0090 -109.2540 114° Southeast 550 633 35,000  Level FlightAware
02:59PM 52.9650 -109.0900 114° Southeast 550 633 35,000  Level FlightAware
02:59PM 52.9300 -108.9590 114° Southeast 550 633 35,000  Level FlightAware
03:00PM 52.7333 -108.5667 114° Southeast 540 621 35,000  Level Edmonton Center
03:00PM 52.7167 -108.5167 119° Southeast 550 633 35,000  Level Winnipeg Center
03:01PM 52.6500 -108.2833 115° Southeast 540 621 35,000  Level Winnipeg Center
03:02PM 52.5833 -108.0667 117° Southeast 540 621 35,000  Level Winnipeg Center
03:03PM 52.5333 -107.8667 112° Southeast 540 621 35,000  Level Winnipeg Center
03:04PM 52.4500 -107.6500 122° Southeast 540 621 35,000  Level Winnipeg Center
03:05PM 52.3833 -107.4167 115° Southeast 540 621 35,000  Level Winnipeg Center
03:06PM 52.3167 -107.2000 117° Southeast 540 621 35,000  Level Winnipeg Center
03:07PM 52.2333 -106.9667 120° Southeast 540 621 35,000  Level Winnipeg Center
03:08PM 52.1667 -106.7500 117° Southeast 550 633 35,000  Level Winnipeg Center
03:10PM 52.0667 -106.3333 111° Southeast 540 621 35,000  Level Edmonton Center
03:10PM 52.0667 -106.3000 90° East 550 633 35,000  Level Winnipeg Center
03:11PM 52.0167 -106.0333 107° East 540 621 35,000  Level Winnipeg Center
03:12PM 51.9833 -105.8167 104° East 540 621 35,000  Level Winnipeg Center
03:13PM 51.9333 -105.5833 109° East 540 621 35,000  Level Winnipeg Center
03:14PM 51.8833 -105.3667 110° East 540 621 35,000  Level Winnipeg Center
03:20PM 51.6260 -104.0410 110° East 529 609 35,000  Level FlightAware
03:21PM 51.5830 -103.8470 110° East 530 610 35,000  Level FlightAware
03:22PM 51.5510 -103.7010 109° East 530 610 35,000  Level FlightAware
03:22PM 51.5240 -103.5740 109° East 530 610 35,000  Level FlightAware
03:23PM 51.4900 -103.4160 109° East 530 610 35,000  Level FlightAware
03:24PM 51.4630 -103.2900 109° East 530 610 35,000  Level FlightAware
03:25PM 51.4360 -103.1630 109° East 530 610 35,000  Level FlightAware
03:25PM 51.4090 -103.0370 109° East 530 610 35,000  Level FlightAware
03:26PM 51.3820 -102.9100 109° East 530 610 35,000  Level FlightAware
03:27PM 51.3480 -102.7520 109° East 530 610 35,000  Level FlightAware
03:27PM 51.3210 -102.6260 109° East 530 610 35,000  Level FlightAware
03:28PM 51.2930 -102.5000 110° East 530 610 35,000  Level FlightAware
03:29PM 51.2660 -102.3740 109° East 530 610 35,000  Level FlightAware
03:29PM 51.2390 -102.2480 109° East 530 610 35,000  Level FlightAware
03:30PM 51.2050 -102.0910 109° East 530 610 35,000  Level FlightAware
03:31PM 51.1780 -101.9650 109° East 530 610 35,000  Level FlightAware
03:34PM 50.9710 -101.0850 110° East 520 598 35,000  Level FlightAware
03:34PM 50.9370 -100.9310 109° East 522 601 35,000  Level FlightAware
03:35PM 50.9020 -100.7760 110° East 522 601 35,000  Level FlightAware
03:36PM 50.8680 -100.6230 109° East 524 603 35,000  Level FlightAware
03:36PM 50.8340 -100.4730 110° East 525 604 35,000  Level FlightAware
03:37PM 50.7980 -100.3120 109° East 525 604 35,000  Level FlightAware
03:38PM 50.7640 -100.1630 110° East 525 604 35,000  Level FlightAware
03:39PM 50.7310 -100.0190 110° East 524 603 35,000  Level FlightAware
03:39PM 50.6940 -99.8590 110° East 525 604 35,000  Level FlightAware
03:40PM 50.6600 -99.7150 110° East 525 604 35,000  Level FlightAware
03:41PM 50.6220 -99.5530 110° East 526 605 35,000  Level FlightAware
03:41PM 50.5880 -99.4120 111° Southeast 526 605 35,000  Level FlightAware
03:42PM 50.5540 -99.2650 110° East 526 605 35,000  Level FlightAware
03:43PM 50.5160 -99.1080 111° Southeast 525 604 35,000  Level FlightAware
03:43PM 50.4820 -98.9680 111° Southeast 526 605 35,000  Level FlightAware
03:44PM 50.4420 -98.8030 111° Southeast 525 604 35,000  Level FlightAware
03:45PM 50.4040 -98.6640 113° Southeast 524 603 35,000  Level FlightAware
03:46PM 50.3600 -98.5270 117° Southeast 522 601 35,000  Level FlightAware
03:46PM 50.3120 -98.3820 117° Southeast 524 603 35,000  Level FlightAware
03:47PM 50.2670 -98.2480 118° Southeast 523 602 35,000  Level FlightAware
03:48PM 50.2220 -98.1120 117° Southeast 524 603 35,000  Level FlightAware
03:48PM 50.1870 -98.0080 118° Southeast 526 605 35,000 840 Level FlightAware
03:49PM 50.1270 -97.8280 117° Southeast 526 605 36,200 1,200 Climbing FlightAware
03:50PM 50.0770 -97.6780 117° Southeast 528 608 36,900 540 Climbing FlightAware
03:50PM 50.0330 -97.5470 118° Southeast 529 609 37,000 60 Climbing FlightAware
03:51PM 49.9850 -97.4060 118° Southeast 529 609 37,000  Level FlightAware
03:52PM 49.9320 -97.2590 119° Southeast 525 604 37,000  Level FlightAware
03:54PM 49.7550 -96.9330 130° Southeast 512 589 37,000  Level FlightAware
03:56PM 49.5910 -96.6460 131° Southeast 511 588 37,000  Level FlightAware
03:56PM 49.5310 -96.5420 132° Southeast 512 589 37,000  Level FlightAware
03:57PM 49.4600 -96.4200 132° Southeast 515 593 37,000  Level FlightAware
03:58PM 49.4010 -96.3170 131° Southeast 518 596 37,000  Level FlightAware
03:58PM 49.3210 -96.1800 132° Southeast 520 598 37,000  Level FlightAware
03:59PM 49.2520 -96.0620 132° Southeast 519 597 37,000  Level FlightAware
04:00PM 49.2000 -95.9710 131° Southeast 519 597 37,000  Level FlightAware
04:01PM 49.1160 -95.8320 133° Southeast 518 596 37,000  Level FlightAware
04:01PM 49.0510 -95.7230 132° Southeast 518 596 37,000  Level FlightAware
04:02PM 48.9920 -95.6220 132° Southeast 518 596 37,000  Level FlightAware
04:03PM 48.9260 -95.5120 132° Southeast 517 595 37,000  Level FlightAware
04:03PM 48.8690 -95.4190 133° Southeast 516 594 37,000  Level FlightAware
04:04PM 48.8040 -95.3090 132° Southeast 516 594 37,000  Level FlightAware
04:05PM 48.7360 -95.1940 132° Southeast 516 594 37,000  Level FlightAware
04:05PM 48.6820 -95.1030 132° Southeast 516 594 37,000  Level FlightAware
04:06PM 48.5720 -94.9290 134° Southeast 519 597 37,000  Level FlightAware
04:07PM 48.5140 -94.8330 132° Southeast 519 597 37,000  Level FlightAware
04:07PM 48.4590 -94.7420 132° Southeast 519 597 37,000  Level FlightAware
04:08PM 48.4040 -94.6500 132° Southeast 519 597 37,000  Level FlightAware
04:09PM 48.3500 -94.5590 132° Southeast 519 597 37,000  Level FlightAware
04:10PM 48.2820 -94.4450 132° Southeast 519 597 37,000  Level FlightAware
04:10PM 48.1680 -94.2800 136° Southeast 515 593 37,000  Level FlightAware
04:11PM 48.1010 -94.1730 133° Southeast 515 593 37,000  Level FlightAware
04:12PM 48.0270 -94.0560 133° Southeast 515 593 37,000  Level FlightAware
04:12PM 47.9600 -93.9520 134° Southeast 517 595 37,000  Level FlightAware
04:13PM 47.8880 -93.8390 134° Southeast 517 595 37,000  Level FlightAware
04:14PM 47.8210 -93.7350 134° Southeast 517 595 37,000  Level FlightAware
04:14PM 47.7560 -93.6340 134° Southeast 517 595 37,000  Level FlightAware
04:15PM 47.6810 -93.5160 133° Southeast 519 597 37,000  Level FlightAware
04:16PM 47.6120 -93.4110 134° Southeast 520 598 37,000  Level FlightAware
04:17PM 47.5470 -93.3110 134° Southeast 519 597 37,000  Level FlightAware
04:17PM 47.4750 -93.2000 134° Southeast 517 595 37,000  Level FlightAware
04:18PM 47.4070 -93.0980 135° Southeast 515 593 37,000  Level FlightAware
04:19PM 47.3310 -92.9840 135° Southeast 514 592 37,000  Level FlightAware
04:19PM 47.2640 -92.8850 135° Southeast 513 590 37,000  Level FlightAware
04:20PM 47.1970 -92.7850 135° Southeast 511 588 37,000  Level FlightAware
04:21PM 47.1250 -92.6770 134° Southeast 509 586 37,000  Level FlightAware
04:21PM 47.0580 -92.5780 135° Southeast 506 582 37,000  Level FlightAware
04:22PM 46.9830 -92.4670 135° Southeast 507 583 37,000  Level FlightAware
04:23PM 46.9200 -92.3740 135° Southeast 507 583 37,000  Level FlightAware
04:24PM 46.8440 -92.2630 135° Southeast 511 588 37,000  Level FlightAware
04:24PM 46.7580 -92.1720 144° Southeast 502 578 37,000  Level FlightAware
04:25PM 46.6760 -92.1020 150° Southeast 501 577 37,000  Level FlightAware
04:26PM 46.5970 -92.0370 151° Southeast 502 578 37,000  Level FlightAware
04:26PM 46.5060 -91.9650 151° Southeast 502 578 37,000  Level FlightAware
04:27PM 46.4250 -91.9010 151° Southeast 504 580 37,000  Level FlightAware
04:28PM 46.3430 -91.8370 152° Southeast 506 582 37,000  Level FlightAware
04:29PM 46.2490 -91.7640 152° Southeast 505 581 37,000  Level FlightAware
04:29PM 46.1660 -91.7000 152° Southeast 504 580 37,000  Level FlightAware
04:30PM 46.0830 -91.6350 151° Southeast 504 580 37,000  Level FlightAware
04:31PM 45.9940 -91.5660 152° Southeast 504 580 37,000  Level FlightAware
04:31PM 45.9120 -91.5030 152° Southeast 505 581 37,000  Level FlightAware
04:32PM 45.8160 -91.4290 152° Southeast 506 582 37,000  Level FlightAware
04:33PM 45.7370 -91.3680 152° Southeast 507 583 37,000  Level FlightAware
04:33PM 45.6530 -91.3040 152° Southeast 508 585 37,000  Level FlightAware
04:34PM 45.5580 -91.2310 152° Southeast 510 587 37,000  Level FlightAware
04:35PM 45.4740 -91.1670 152° Southeast 512 589 37,000  Level FlightAware
04:36PM 45.3820 -91.0970 152° Southeast 513 590 37,000  Level FlightAware
04:36PM 45.2990 -91.0350 152° Southeast 513 590 37,000 -900 Level FlightAware
04:37PM 45.2050 -90.9640 152° Southeast 510 587 35,800 -2,220 Descending FlightAware
04:38PM 45.1190 -90.9000 152° Southeast 511 588 33,900 -2,580 Descending FlightAware
04:38PM 45.0410 -90.8420 152° Southeast 502 578 32,400 -2,100 Descending FlightAware
04:39PM 44.9480 -90.7730 152° Southeast 490 564 31,000 -1,020 Descending FlightAware
04:40PM 44.8700 -90.7150 152° Southeast 488 562 31,000  Level FlightAware
04:40PM 44.7880 -90.6540 152° Southeast 488 562 31,000  Level FlightAware
04:41PM 44.7010 -90.5900 152° Southeast 488 562 31,000  Level FlightAware
04:42PM 44.6190 -90.5310 153° Southeast 488 562 31,000  Level FlightAware
04:42PM 44.5510 -90.4800 152° Southeast 488 562 31,000  Level FlightAware
04:43PM 44.4580 -90.4120 152° Southeast 487 560 31,000  Level FlightAware
04:44PM 44.3700 -90.3480 153° Southeast 486 559 31,000  Level FlightAware
04:45PM 44.2900 -90.2900 153° Southeast 487 560 31,000  Level FlightAware
04:45PM 44.2020 -90.2270 153° Southeast 490 564 31,000  Level FlightAware
04:46PM 44.1190 -90.1670 153° Southeast 489 563 31,000  Level FlightAware
04:47PM 44.0340 -90.1070 153° Southeast 490 564 31,000  Level FlightAware
04:47PM 43.9530 -90.0480 152° Southeast 491 565 31,000  Level FlightAware
04:48PM 43.8650 -89.9860 153° Southeast 492 566 31,000 -360 Level FlightAware
04:49PM 43.7840 -89.9280 153° Southeast 484 557 30,500 -1,080 Descending FlightAware
04:49PM 43.6940 -89.8650 153° Southeast 476 548 29,500 -1,380 Descending FlightAware
04:50PM 43.6090 -89.8040 153° Southeast 467 537 28,500 -1,740 Descending FlightAware
04:51PM 43.5300 -89.7450 152° Southeast 459 528 27,100 -1,980 Descending FlightAware
04:52PM 43.4660 -89.6830 145° Southeast 450 518 25,900 -1,920 Descending FlightAware
04:52PM 43.3940 -89.5980 139° Southeast 441 507 24,400 -2,040 Descending FlightAware
04:53PM 43.3240 -89.5220 142° Southeast 431 496 22,900 -1,980 Descending FlightAware
04:54PM 43.2610 -89.4580 143° Southeast 422 486 21,600 -1,980 Descending FlightAware
04:54PM 43.1970 -89.3930 143° Southeast 415 478 20,300 -1,920 Descending FlightAware
04:55PM 43.1230 -89.3350 150° Southeast 403 464 18,900 -1,920 Descending FlightAware
04:56PM 43.0520 -89.3060 163° South 395 455 17,600 -1,920 Descending FlightAware
04:56PM 42.9820 -89.2730 161° South 388 447 16,400 -1,800 Descending FlightAware
04:57PM 42.9160 -89.2450 163° South 385 443 15,200 -1,800 Descending FlightAware
04:58PM 42.8410 -89.2150 164° South 382 440 13,900 -1,380 Descending FlightAware
04:59PM 42.7780 -89.1480 142° Southeast 373 429 13,200 -600 Descending FlightAware
04:59PM 42.7340 -89.0750 129° Southeast 363 418 13,100 -120 Descending FlightAware
05:00PM 42.6870 -88.9990 130° Southeast 367 422 13,100  Level FlightAware
05:01PM 42.6430 -88.9290 131° Southeast 365 420 13,100 -480 Level FlightAware
05:01PM 42.5990 -88.8580 130° Southeast 361 415 12,500 -960 Descending FlightAware
05:02PM 42.5500 -88.7790 130° Southeast 359 413 11,800 -1,200 Descending FlightAware
05:03PM 42.5090 -88.7130 130° Southeast 353 406 10,800 -1,140 Descending FlightAware
05:04PM 42.4630 -88.6390 130° Southeast 327 376 10,200 -660 Descending FlightAware
05:04PM 42.4260 -88.5800 130° Southeast 301 346 9,900 -780 Descending FlightAware
05:05PM 42.3990 -88.5360 130° Southeast 293 337 9,300 -1,080 Descending FlightAware
05:05PM 42.3890 -88.5100 118° Southeast 293 337 9,100 -300 Descending FlightAware
05:05PM 42.3790 -88.4700 109° East 292 336 9,100 -480 Level FlightAware
05:06PM 42.3660 -88.4170 108° East 290 334 8,700 -1,020 Descending FlightAware
05:06PM 42.3560 -88.3730 107° East 286 329 8,200 -1,200 Descending FlightAware
05:07PM 42.3350 -88.3270 122° Southeast 282 325 7,600 -1,200 Descending FlightAware
05:07PM 42.3240 -88.3110 133° Southeast 282 325 7,300 -780 Descending FlightAware
05:07PM 42.2970 -88.2790 139° Southeast 286 329 7,100 -300 Descending FlightAware
05:08PM 42.2830 -88.2640 142° Southeast 287 330 7,100  Level FlightAware
05:08PM 42.2540 -88.2310 140° Southeast 286 329 7,100 -240 Level FlightAware
05:09PM 42.2260 -88.2000 141° Southeast 275 316 6,900 -1,020 Descending FlightAware
05:09PM 42.1980 -88.1680 140° Southeast 263 303 6,200 -1,500 Descending FlightAware
05:10PM 42.1710 -88.1370 140° Southeast 251 289 5,400 -1,440 Descending FlightAware
05:10PM 42.1500 -88.1130 140° Southeast 237 273 4,900 -1,200 Descending FlightAware
05:11PM 42.1260 -88.0860 140° Southeast 225 259 4,300 -1,320 Descending FlightAware
05:11PM 42.1050 -88.0620 140° Southeast 217 250 3,700 -1,200 Descending FlightAware
05:11PM 42.0840 -88.0390 141° Southeast 202 232 3,200 -1,140 Descending FlightAware
05:12PM 42.0630 -88.0150 140° Southeast 182 209 2,600 -1,140 Descending FlightAware
05:12PM 42.0480 -87.9980 140° Southeast 171 197 2,200 -900 Descending FlightAware
05:13PM 42.0300 -87.9780 140° Southeast 167 192 1,800 -900 Descending FlightAware
05:13PM 42.0150 -87.9610 140° Southeast 165 190 1,400 -960 Descending FlightAware
05:14PM 42.0030 -87.9470 139° Southeast 166 191 1,100 -900 Descending FlightAware